Airfield :
LOGIN :

Register | Disclaimer

   EN    FR    IT 

 










Legend :    VFR   Marginal VFR   IFR   Intensive IFR   Very Intensive IFR
Visi :
Ceiling :
>= 8 km
>= 3000ft
5 to 8 km
1000 to 3000 ft
1500m to 5 km
500 to 1000 ft
800 to 1500m
200 to 500 ft
< 800m
< 200 ft
Symbols :   Thunderstorms  Fog  Heavy snow  Heavy precipitations  Wind > 20 kt
SIGMETs :     Misc.  Thunderstorms  Icing  Turbulence  Mountain Waves  Volcanic Ashes







- Airport Elevation : 3 ft
- IATA code : DHR


EHKD - Den Helder De Kooy

CURRENT METAR :
  • 112255Z AUTO 23002KT 9999 FEW030 01/01 Q1024 BLU

EXPIRED METARs :
  • 112225Z AUTO 24001KT 9999 BKN033 01/00 Q1025 BLU
  • 112155Z AUTO 27002KT 9999 BKN036 01/01 Q1025 BLU
  • 112125Z AUTO 30001KT 9999 SCT036 02/01 Q1024 BLU
  • 112055Z AUTO 27001KT 9999 NCD 02/01 Q1024 BLU
  • 112025Z AUTO 28002KT 9999 BKN036 OVC040 02/02 Q1024 BLU

TAF TAF EHKD
Valid from the 11 at 18:00 until the 12 at 06:00 UTC


111737Z 1118/1206 VRB03KT 9999 FEW025 SCT035
No reported NOTAMs for that airfield.



MET'MAP, your aeronautical weather chart ! - Copyright ORBIFLY December 2007 - Disclaimer

ORBIFLY MET'MAP TEAM :

Programming & Development : Alexandra Zaïnal
Concept & Development : Baudouin d'Aumeries
Co-Development & Prog : Marc-Olivier Méhu
Technical & hardware support : Manuel Goepfert

Contact : metmap@orbifly.com




SOURCES & CREDITS :

   NOAA